Time;durP1;ratioP1;P1;durP2;ratioP2;P2;SDS_P1;SDS_P2;PMS_P1;PMS_P2;Temp;Humidity;BMP_temperature;BMP_pressure;BME280_temperature;BME280_humidity;BME280_pressure;Samples;Min_cycle;Max_cycle;Signal;HPM_P1;HPM_P2
2023/01/13 04:02:48;;;;;;;5.23;5.00;;;10.80;99.90;;;;;;4972143;23;20269;-80
2023/01/13 04:05:16;;;;;;;4.90;4.80;;;10.80;99.90;;;;;;4902931;29;20187;-81
2023/01/13 04:07:59;;;;;;;5.90;5.67;;;10.80;99.90;;;;;;4883533;29;20892;-79
2023/01/13 04:11:04;;;;;;;5.43;5.23;;;10.80;99.90;;;;;;4882802;29;20183;-80
2023/01/13 04:13:36;;;;;;;7.20;6.70;;;10.70;99.90;;;;;;4877954;29;20250;-81
2023/01/13 04:16:05;;;;;;;7.80;7.50;;;10.70;99.90;;;;;;4883434;29;20263;-79
2023/01/13 04:18:30;;;;;;;8.73;8.03;;;10.70;99.90;;;;;;4883361;29;20595;-77
2023/01/13 04:20:58;;;;;;;8.73;8.23;;;10.60;99.90;;;;;;4883210;29;20196;-78
2023/01/13 04:23:26;;;;;;;10.80;10.20;;;10.60;99.90;;;;;;4899067;29;20301;-78
2023/01/13 04:25:53;;;;;;;9.60;9.20;;;10.50;99.90;;;;;;4882188;29;20203;-79
2023/01/13 04:28:19;;;;;;;9.67;9.27;;;10.50;99.90;;;;;;4871735;29;20687;-78
2023/01/13 04:30:45;;;;;;;9.57;9.17;;;10.60;99.90;;;;;;4871065;29;20199;-77
2023/01/13 04:33:12;;;;;;;10.90;10.20;;;10.50;99.90;;;;;;4899441;29;20207;-78
2023/01/13 04:35:38;;;;;;;10.13;9.63;;;10.50;99.90;;;;;;4882932;29;20243;-78
2023/01/13 04:38:07;;;;;;;10.43;9.87;;;10.50;99.90;;;;;;4898183;29;20188;-79
2023/01/13 04:40:34;;;;;;;8.33;7.93;;;10.40;99.90;;;;;;4898577;29;20208;-77
2023/01/13 04:42:59;;;;;;;8.03;7.53;;;10.40;99.90;;;;;;4882170;29;20323;-79
2023/01/13 04:45:25;;;;;;;7.40;7.10;;;10.40;99.90;;;;;;4897565;29;20491;-78
2023/01/13 04:47:51;;;;;;;6.80;6.60;;;10.40;99.90;;;;;;4898295;29;20187;-79
2023/01/13 04:50:18;;;;;;;8.10;7.80;;;10.50;99.90;;;;;;4881645;29;20184;-78
2023/01/13 04:52:51;;;;;;;9.30;8.57;;;10.50;99.90;;;;;;4883932;29;20210;-78
2023/01/13 04:55:18;;;;;;;8.77;8.30;;;10.50;99.90;;;;;;4882383;29;20239;-79
2023/01/13 04:57:44;;;;;;;9.50;9.10;;;10.50;99.90;;;;;;4878576;29;20608;-79
2023/01/13 05:00:13;;;;;;;8.87;8.53;;;10.50;99.90;;;;;;4898173;29;20188;-78
2023/01/13 05:02:39;;;;;;;9.23;8.73;;;10.50;99.90;;;;;;4891663;29;20211;-78
2023/01/13 05:05:05;;;;;;;7.60;7.30;;;10.50;99.90;;;;;;4902709;29;20188;-80
2023/01/13 05:07:31;;;;;;;7.87;7.57;;;10.40;99.90;;;;;;4899621;29;20187;-80
2023/01/13 05:09:57;;;;;;;7.80;7.40;;;10.40;99.90;;;;;;4882578;29;20188;-80
2023/01/13 05:17:55;;;;;;;7.50;7.20;;;10.50;99.90;;;;;;4903625;29;20198;-78
2023/01/13 05:20:21;;;;;;;8.70;8.40;;;10.50;99.90;;;;;;4891908;29;20184;-76
2023/01/13 05:25:34;;;;;;;7.93;7.53;;;10.60;99.90;;;;;;4893246;29;20306;-76
2023/01/13 05:27:59;;;;;;;10.83;10.27;;;10.70;99.90;;;;;;4885117;29;20672;-76
2023/01/13 05:30:34;;;;;;;9.33;8.87;;;10.70;99.90;;;;;;4897787;29;20330;-76
2023/01/13 05:33:00;;;;;;;11.67;11.10;;;10.70;99.90;;;;;;4914452;29;20198;-76
2023/01/13 05:35:27;;;;;;;8.73;8.27;;;10.80;99.90;;;;;;4914273;29;20647;-77
2023/01/13 05:37:54;;;;;;;9.63;9.23;;;10.80;99.90;;;;;;4895339;29;20196;-75
2023/01/13 05:43:19;;;;;;;8.97;8.57;;;10.80;99.90;;;;;;4901260;29;20282;-75
2023/01/13 05:45:47;;;;;;;7.47;7.17;;;10.80;99.90;;;;;;4899956;29;20195;-76
2023/01/13 05:48:14;;;;;;;7.50;7.20;;;10.90;99.90;;;;;;4894841;29;20240;-73
2023/01/13 05:50:40;;;;;;;8.40;7.90;;;10.80;99.90;;;;;;4894858;29;20218;-73
2023/01/13 05:53:06;;;;;;;9.63;9.13;;;10.80;99.90;;;;;;4877481;29;20187;-76
2023/01/13 05:55:31;;;;;;;9.63;9.23;;;10.80;99.90;;;;;;4895133;29;20202;-76
2023/01/13 05:57:57;;;;;;;7.93;7.53;;;10.80;99.90;;;;;;4894588;29;20682;-75
2023/01/13 06:00:23;;;;;;;8.30;7.97;;;10.80;99.90;;;;;;4878148;29;20962;-70
2023/01/13 06:02:49;;;;;;;7.47;7.17;;;10.90;99.90;;;;;;4878111;29;20186;-70
2023/01/13 06:05:15;;;;;;;7.17;6.87;;;10.90;99.90;;;;;;4895312;29;20183;-71
2023/01/13 06:07:40;;;;;;;6.40;6.20;;;10.80;99.90;;;;;;4895185;29;20191;-72
2023/01/13 06:10:07;;;;;;;7.80;7.40;;;10.90;99.90;;;;;;4894819;29;20647;-71
2023/01/13 06:12:33;;;;;;;7.40;7.10;;;10.80;99.90;;;;;;4894904;29;20208;-71
2023/01/13 06:14:58;;;;;;;7.57;7.23;;;10.80;99.90;;;;;;4894911;29;20679;-72
2023/01/13 06:17:24;;;;;;;7.77;7.37;;;10.80;99.90;;;;;;4907141;29;20249;-71
2023/01/13 06:19:50;;;;;;;8.93;8.33;;;10.70;99.90;;;;;;4914209;29;20757;-73
2023/01/13 06:22:22;;;;;;;10.77;10.27;;;10.70;99.90;;;;;;4910708;29;20223;-71
2023/01/13 06:24:55;;;;;;;9.23;8.83;;;10.60;99.90;;;;;;4895012;29;20239;-71
2023/01/13 06:27:21;;;;;;;9.60;9.20;;;10.60;99.90;;;;;;4894306;29;20236;-71
2023/01/13 06:29:48;;;;;;;8.87;8.33;;;10.60;99.90;;;;;;4894756;29;20691;-71
2023/01/13 06:32:30;;;;;;;9.70;9.30;;;10.60;99.90;;;;;;4894525;29;20227;-71
2023/01/13 06:35:04;;;;;;;9.77;9.37;;;10.70;99.90;;;;;;4896732;29;20664;-70
2023/01/13 06:37:31;;;;;;;10.07;9.60;;;10.70;99.90;;;;;;4897356;29;20239;-71
2023/01/13 06:40:00;;;;;;;8.97;8.57;;;10.70;99.90;;;;;;4881249;29;20180;-71
2023/01/13 06:45:17;;;;;;;9.30;8.90;;;10.80;99.90;;;;;;4897812;29;20223;-71
2023/01/13 06:47:42;;;;;;;9.57;9.17;;;10.80;99.90;;;;;;4897454;29;20607;-70
2023/01/13 06:50:09;;;;;;;8.67;8.37;;;10.80;99.90;;;;;;4897635;29;20656;-71
2023/01/13 06:52:35;;;;;;;8.27;7.90;;;10.80;99.90;;;;;;4897449;29;20231;-71
2023/01/13 06:55:01;;;;;;;8.37;8.07;;;10.80;99.90;;;;;;4897785;29;20219;-70
2023/01/13 06:57:27;;;;;;;8.33;8.03;;;10.80;99.90;;;;;;4897085;29;20266;-71
2023/01/13 06:59:53;;;;;;;6.87;6.67;;;10.80;99.90;;;;;;4890357;29;20201;-72
2023/01/13 07:02:19;;;;;;;7.63;7.33;;;10.80;99.90;;;;;;4878648;29;20262;-72
2023/01/13 07:04:45;;;;;;;8.63;8.23;;;10.80;99.90;;;;;;4896962;29;20203;-71
2023/01/13 07:07:12;;;;;;;7.73;7.43;;;10.80;99.90;;;;;;4896336;29;20180;-71
2023/01/13 07:09:38;;;;;;;9.30;8.93;;;10.90;99.90;;;;;;4897488;29;20239;-72
2023/01/13 07:12:04;;;;;;;10.10;9.60;;;10.80;99.90;;;;;;4897544;29;20204;-71
2023/01/13 07:17:14;;;;;;;8.00;7.70;;;10.90;99.90;;;;;;4897357;29;20215;-73
2023/01/13 07:19:40;;;;;;;7.70;7.27;;;10.90;99.90;;;;;;4880704;29;20602;-71
2023/01/13 07:22:06;;;;;;;7.23;6.93;;;10.90;99.90;;;;;;4897190;29;20651;-71
2023/01/13 07:24:32;;;;;;;8.03;7.57;;;10.90;99.90;;;;;;4896997;29;20183;-71
2023/01/13 07:26:58;;;;;;;9.93;9.53;;;10.90;99.90;;;;;;4897368;29;20840;-72
2023/01/13 07:29:23;;;;;;;7.70;7.40;;;10.90;99.90;;;;;;4880911;29;20618;-71
2023/01/13 07:31:49;;;;;;;7.67;7.37;;;10.90;99.90;;;;;;4897528;29;20218;-71
2023/01/13 07:34:15;;;;;;;9.97;9.57;;;10.90;99.90;;;;;;4897394;29;20188;-66
2023/01/13 07:36:41;;;;;;;9.43;8.67;;;10.90;99.90;;;;;;4897329;29;20278;-66
2023/01/13 07:39:07;;;;;;;8.80;8.50;;;10.90;99.90;;;;;;4897101;29;20187;-68
2023/01/13 07:44:17;;;;;;;9.13;8.73;;;10.90;99.90;;;;;;4896943;29;20187;-67
2023/01/13 07:46:42;;;;;;;7.60;7.37;;;11.00;99.90;;;;;;4896501;29;20275;-68
2023/01/13 07:49:09;;;;;;;8.33;7.87;;;11.00;99.90;;;;;;4896959;29;20195;-68
2023/01/13 07:51:38;;;;;;;7.93;7.63;;;11.00;99.90;;;;;;4897113;29;20294;-67
2023/01/13 07:54:05;;;;;;;7.90;7.60;;;11.10;99.90;;;;;;4896916;29;20194;-68
2023/01/13 07:56:31;;;;;;;7.50;7.23;;;11.00;99.90;;;;;;4897214;29;20684;-68
2023/01/13 07:58:59;;;;;;;8.00;7.50;;;11.00;99.90;;;;;;4880105;29;20190;-71
2023/01/13 08:01:26;;;;;;;8.20;7.90;;;11.00;99.90;;;;;;4896955;29;20215;-70
2023/01/13 08:03:53;;;;;;;6.90;6.70;;;11.00;99.90;;;;;;4897017;29;20188;-70
2023/01/13 08:06:19;;;;;;;7.17;6.87;;;11.00;99.90;;;;;;4897017;29;20736;-72
2023/01/13 08:08:45;;;;;;;7.17;6.87;;;11.00;99.90;;;;;;4896514;29;20275;-72
2023/01/13 08:11:11;;;;;;;7.70;7.20;;;11.10;99.90;;;;;;4896372;29;20203;-70
2023/01/13 08:13:36;;;;;;;8.10;7.73;;;11.10;99.90;;;;;;4896704;29;20674;-71
2023/01/13 08:16:08;;;;;;;8.73;8.23;;;11.10;99.90;;;;;;4880005;29;20207;-71
2023/01/13 08:18:34;;;;;;;8.37;7.87;;;11.10;99.90;;;;;;4896650;29;20202;-72
2023/01/13 08:21:07;;;;;;;7.57;6.97;;;11.10;99.90;;;;;;4897245;29;20210;-71
2023/01/13 08:23:33;;;;;;;6.93;6.73;;;11.10;99.90;;;;;;4896715;29;20618;-71
2023/01/13 08:26:04;;;;;;;5.30;5.10;;;11.20;99.90;;;;;;4897777;29;20188;-71
2023/01/13 08:28:30;;;;;;;7.10;6.90;;;11.20;99.90;;;;;;4896850;29;20303;-71
2023/01/13 08:31:00;;;;;;;8.60;8.30;;;11.10;99.90;;;;;;4896627;29;20283;-71
2023/01/13 08:33:27;;;;;;;4.30;4.20;;;10.90;99.90;;;;;;4879707;29;20187;-71
2023/01/13 08:35:53;;;;;;;4.30;4.13;;;10.80;99.90;;;;;;4880028;29;20571;-72
2023/01/13 08:38:19;;;;;;;8.30;8.00;;;10.70;99.90;;;;;;4896149;29;20195;-72
2023/01/13 08:40:46;;;;;;;19.93;19.03;;;10.80;99.90;;;;;;4879964;29;20200;-71
2023/01/13 08:43:12;;;;;;;13.90;13.30;;;11.00;99.90;;;;;;4896222;29;20187;-72
2023/01/13 08:45:38;;;;;;;4.40;4.30;;;11.20;99.90;;;;;;4896112;29;20675;-72
2023/01/13 08:48:04;;;;;;;4.80;4.50;;;11.50;99.90;;;;;;4896271;29;20922;-72
2023/01/13 08:50:30;;;;;;;5.83;5.53;;;11.60;99.90;;;;;;4879593;29;20326;-78
2023/01/13 08:52:56;;;;;;;5.20;5.00;;;11.50;99.90;;;;;;4879594;29;20307;-72
2023/01/13 08:55:21;;;;;;;4.50;4.30;;;11.50;99.90;;;;;;4895979;29;20274;-71
2023/01/13 08:57:47;;;;;;;4.77;4.63;;;11.30;99.90;;;;;;4895568;29;20216;-71
2023/01/13 09:00:15;;;;;;;56.47;53.47;;;11.00;99.90;;;;;;4895959;29;20559;-71
2023/01/13 09:02:41;;;;;;;56.40;53.67;;;10.60;99.90;;;;;;4879193;29;20609;-71
2023/01/13 09:05:08;;;;;;;15.57;14.93;;;10.10;99.90;;;;;;4896061;29;20180;-71
2023/01/13 09:07:35;;;;;;;14.70;14.10;;;9.80;99.90;;;;;;4878824;29;20664;-71
2023/01/13 09:10:03;;;;;;;11.37;10.90;;;9.70;99.90;;;;;;4896067;29;20247;-71
2023/01/13 09:15:13;;;;;;;13.93;8.70;;;9.70;99.90;;;;;;4877260;29;20323;-71
2023/01/13 09:17:39;;;;;;;7.13;6.83;;;9.70;99.90;;;;;;4892155;29;20234;-71
2023/01/13 09:20:05;;;;;;;5.97;5.77;;;9.80;99.90;;;;;;4879319;29;20275;-71
2023/01/13 09:22:31;;;;;;;11.83;11.03;;;9.70;99.90;;;;;;4878905;29;20204;-71
2023/01/13 09:24:57;;;;;;;13.13;12.30;;;9.70;99.90;;;;;;4877067;29;20187;-71
2023/01/13 09:27:22;;;;;;;17.50;16.30;;;9.70;99.90;;;;;;4875436;29;20185;-71
2023/01/13 09:29:49;;;;;;;11.53;11.10;;;9.70;99.90;;;;;;4876989;29;20184;-71
2023/01/13 09:32:15;;;;;;;9.57;9.17;;;9.70;99.90;;;;;;4876930;29;20211;-71
2023/01/13 09:34:59;;;;;;;5.03;4.83;;;9.50;99.90;;;;;;4888283;29;20196;-70
2023/01/13 09:37:36;;;;;;;6.83;6.23;;;9.40;99.90;;;;;;4880417;29;20227;-70
2023/01/13 09:40:05;;;;;;;6.50;6.30;;;9.20;99.90;;;;;;4875510;29;20184;-74
2023/01/13 09:45:56;;;;;;;6.43;6.13;;;9.10;99.90;;;;;;4876704;29;20642;-72
2023/01/13 09:48:29;;;;;;;7.53;7.03;;;9.00;99.90;;;;;;4875894;29;20228;-71
2023/01/13 09:51:08;;;;;;;5.63;5.43;;;8.90;99.90;;;;;;4876577;29;20578;-71
2023/01/13 09:54:24;;;;;;;10.60;10.07;;;8.90;99.90;;;;;;4884900;29;20551;-71
2023/01/13 09:56:50;;;;;;;11.37;10.87;;;8.90;99.90;;;;;;4821762;29;20670;-71
2023/01/13 09:59:16;;;;;;;4.80;4.70;;;9.10;99.90;;;;;;4837253;29;20179;-71
2023/01/13 10:02:20;;;;;;;20.83;19.70;;;9.10;99.90;;;;;;4864367;29;20231;-71
2023/01/13 10:05:13;;;;;;;4.73;4.43;;;9.30;99.90;;;;;;4894368;29;20179;-71
2023/01/13 10:07:48;;;;;;;4.10;4.00;;;9.30;99.90;;;;;;4873848;29;20200;-71
2023/01/13 10:10:27;;;;;;;4.23;4.00;;;9.30;99.90;;;;;;4897466;29;20186;-71
2023/01/13 10:16:00;;;;;;;9.93;9.43;;;9.10;99.90;;;;;;4920713;23;20187;-73
2023/01/13 10:18:45;;;;;;;9.40;9.00;;;9.20;99.90;;;;;;4885329;29;20221;-73
2023/01/13 10:21:32;;;;;;;21.93;20.93;;;9.20;99.90;;;;;;4903462;29;20193;-73
2023/01/13 10:24:08;;;;;;;25.27;24.10;;;9.20;99.90;;;;;;4882866;29;20572;-72
2023/01/13 10:26:57;;;;;;;3.90;3.70;;;9.10;99.90;;;;;;4880214;29;20230;-72
2023/01/13 10:29:25;;;;;;;11.80;11.20;;;9.00;99.90;;;;;;4880270;29;20202;-72
2023/01/13 10:31:53;;;;;;;18.10;17.27;;;8.90;99.90;;;;;;4888150;29;20185;-71
2023/01/13 10:34:20;;;;;;;7.10;6.80;;;8.90;99.90;;;;;;4898106;29;20994;-71
2023/01/13 10:37:01;;;;;;;4.73;4.53;;;8.90;99.90;;;;;;4898182;29;20222;-71
2023/01/13 10:39:36;;;;;;;14.20;10.93;;;8.80;99.90;;;;;;4881091;29;20183;-71
2023/01/13 10:42:05;;;;;;;8.33;7.53;;;8.80;99.90;;;;;;4881652;29;20671;-70
2023/01/13 10:44:31;;;;;;;6.50;6.00;;;8.80;99.90;;;;;;4881685;29;20288;-70
2023/01/13 10:46:58;;;;;;;4.77;4.33;;;8.70;99.90;;;;;;4897513;29;20688;-71
2023/01/13 10:49:29;;;;;;;6.93;6.47;;;8.60;99.90;;;;;;4898034;29;20184;-71
2023/01/13 10:51:55;;;;;;;12.03;11.40;;;8.50;99.90;;;;;;4881178;29;20212;-71
2023/01/13 10:54:23;;;;;;;8.43;7.83;;;8.60;99.90;;;;;;4897479;29;20617;-71
2023/01/13 10:57:27;;;;;;;10.77;10.27;;;8.60;99.90;;;;;;4897259;29;20219;-71
2023/01/13 10:59:54;;;;;;;15.40;14.73;;;8.70;99.90;;;;;;4897975;29;20215;-70
2023/01/13 11:02:26;;;;;;;20.07;19.03;;;9.10;99.90;;;;;;4880040;29;20180;-70
2023/01/13 11:04:52;;;;;;;5.53;5.00;;;9.40;99.90;;;;;;4881044;29;20184;-71
2023/01/13 11:07:23;;;;;;;5.47;5.07;;;9.20;99.90;;;;;;4897524;29;20210;-71
2023/01/13 11:10:02;;;;;;;4.70;4.30;;;9.00;99.90;;;;;;4899105;29;20200;-72
2023/01/13 11:12:32;;;;;;;5.83;5.47;;;8.90;99.90;;;;;;4908615;29;20243;-72
2023/01/13 11:15:03;;;;;;;8.93;8.40;;;8.70;99.90;;;;;;4897263;29;20252;-72
2023/01/13 11:17:39;;;;;;;8.57;8.07;;;8.50;99.90;;;;;;4896846;29;20310;-72
2023/01/13 11:20:11;;;;;;;5.70;5.37;;;8.50;99.90;;;;;;4896017;29;20714;-72
2023/01/13 11:22:44;;;;;;;7.83;7.27;;;8.40;99.90;;;;;;4897067;29;20194;-72
2023/01/13 11:25:41;;;;;;;6.27;5.97;;;8.40;99.90;;;;;;4862122;29;20180;-71
2023/01/13 11:28:21;;;;;;;8.03;7.53;;;8.40;99.90;;;;;;4871138;29;20200;-72
2023/01/13 11:30:50;;;;;;;16.50;15.80;;;8.30;99.90;;;;;;4878936;29;20192;-72
2023/01/13 11:33:41;;;;;;;16.77;15.93;;;8.30;99.90;;;;;;4884264;29;20239;-71
2023/01/13 11:36:23;;;;;;;5.77;5.57;;;8.30;99.90;;;;;;4881111;29;20718;-72
2023/01/13 11:39:11;;;;;;;5.60;5.40;;;8.20;99.90;;;;;;4903530;29;20184;-71
2023/01/13 11:42:19;;;;;;;7.67;7.27;;;8.30;99.90;;;;;;4903662;29;20204;-72
2023/01/13 11:44:47;;;;;;;9.00;8.57;;;8.40;99.90;;;;;;4903677;29;20209;-72
2023/01/13 11:47:15;;;;;;;6.37;6.17;;;8.40;99.90;;;;;;4884287;29;20232;-72
2023/01/13 11:49:47;;;;;;;8.30;7.70;;;8.50;99.90;;;;;;4897237;29;20782;-72
2023/01/13 11:52:46;;;;;;;9.00;8.30;;;8.50;99.90;;;;;;4880495;29;20192;-72
2023/01/13 11:55:23;;;;;;;10.70;10.13;;;8.40;99.90;;;;;;4861663;29;20224;-72
2023/01/13 11:58:06;;;;;;;7.90;7.47;;;8.20;99.90;;;;;;4877828;29;20260;-72
2023/01/13 12:00:55;;;;;;;11.93;11.23;;;8.20;99.90;;;;;;4878182;29;20188;-72
2023/01/13 12:03:30;;;;;;;10.07;9.53;;;8.10;99.90;;;;;;4866520;29;20679;-72
2023/01/13 12:06:02;;;;;;;7.07;6.80;;;8.00;99.90;;;;;;4897049;29;20574;-72
2023/01/13 12:08:49;;;;;;;8.57;8.07;;;8.00;99.90;;;;;;4879321;29;20203;-72
2023/01/13 12:12:18;;;;;;;5.63;5.30;;;8.00;99.90;;;;;;4896409;29;20194;-73
2023/01/13 12:14:33;;;;;;;5.43;5.20;;;8.10;99.90;;;;;;4896163;29;20214;-72
2023/01/13 12:17:02;;;;;;;5.40;5.10;;;8.20;99.90;;;;;;4895574;29;20227;-73
2023/01/13 12:19:31;;;;;;;6.07;5.50;;;8.10;99.90;;;;;;4896330;29;20586;-73
2023/01/13 12:22:12;;;;;;;10.93;10.23;;;8.30;99.90;;;;;;4879726;29;20179;-72
2023/01/13 12:24:50;;;;;;;18.30;17.27;;;8.40;99.90;;;;;;4879064;29;20196;-72
2023/01/13 12:27:40;;;;;;;5.87;5.57;;;8.50;99.90;;;;;;4887894;29;20216;-72
2023/01/13 12:30:41;;;;;;;6.70;6.33;;;8.50;99.90;;;;;;4884930;29;20676;-72
2023/01/13 12:33:19;;;;;;;6.83;6.53;;;8.50;99.90;;;;;;4899217;29;20201;-73
2023/01/13 12:35:57;;;;;;;15.10;14.10;;;8.50;99.90;;;;;;4895736;29;20194;-72
2023/01/13 12:38:29;;;;;;;13.50;12.47;;;8.60;99.90;;;;;;4878925;29;20192;-72
2023/01/13 12:41:02;;;;;;;15.87;15.07;;;8.60;99.90;;;;;;4879084;29;20645;-72
2023/01/13 12:46:22;;;;;;;8.17;7.30;;;8.80;99.90;;;;;;4912248;29;20310;-72
2023/01/13 12:48:53;;;;;;;7.87;7.30;;;8.90;99.90;;;;;;4897408;29;20660;-71
2023/01/13 12:51:27;;;;;;;8.47;7.70;;;9.00;99.90;;;;;;4914768;29;20641;-72
2023/01/13 12:53:55;;;;;;;10.23;9.43;;;10.00;99.90;;;;;;4906100;29;20204;-72
2023/01/13 12:56:34;;;;;;;7.57;7.17;;;11.90;99.90;;;;;;4895010;29;20219;-72
2023/01/13 12:59:18;;;;;;;4.90;4.50;;;12.40;99.90;;;;;;4895530;29;20183;-72
2023/01/13 13:02:07;;;;;;;4.47;4.27;;;11.80;99.90;;;;;;4895651;29;20648;-72
2023/01/13 13:04:50;;;;;;;5.97;5.60;;;11.40;99.90;;;;;;4895473;29;20192;-72
2023/01/13 13:07:40;;;;;;;13.13;12.37;;;10.80;99.90;;;;;;4895572;29;20207;-72
2023/01/13 13:10:11;;;;;;;14.93;14.27;;;10.30;99.90;;;;;;4895654;29;20607;-73
2023/01/13 13:15:27;;;;;;;10.87;10.37;;;9.70;99.90;;;;;;4896739;29;20196;-73
2023/01/13 13:18:05;;;;;;;8.07;7.67;;;9.50;99.90;;;;;;4886354;29;20227;-73
2023/01/13 13:20:58;;;;;;;11.77;11.03;;;10.00;99.90;;;;;;4881980;29;20179;-73
2023/01/13 13:23:39;;;;;;;13.57;12.53;;;11.80;99.90;;;;;;4910904;29;20252;-73
2023/01/13 13:26:18;;;;;;;9.70;8.60;;;12.10;99.90;;;;;;4895247;29;20208;-73
2023/01/13 13:29:05;;;;;;;7.03;6.33;;;12.70;99.90;;;;;;4898867;29;20234;-73
2023/01/13 13:31:43;;;;;;;7.77;7.10;;;13.00;99.90;;;;;;4914254;29;20244;-73
2023/01/13 13:34:31;;;;;;;6.07;5.60;;;13.30;99.90;;;;;;4904478;29;20266;-73
2023/01/13 13:37:28;;;;;;;5.77;5.30;;;13.50;99.90;;;;;;4894762;29;20223;-73
2023/01/13 13:48:28;;;;;;;5.83;5.33;;;12.60;99.90;;;;;;4883933;29;20558;-73
2023/01/13 13:51:13;;;;;;;6.23;5.60;;;12.30;99.90;;;;;;4892313;29;20214;-73
2023/01/13 13:53:41;;;;;;;8.63;7.83;;;12.50;99.90;;;;;;4878300;29;20687;-73
2023/01/13 13:56:20;;;;;;;12.93;11.97;;;12.50;99.90;;;;;;4899233;29;20703;-75
2023/01/13 13:58:47;;;;;;;8.43;5.77;;;11.30;99.90;;;;;;4896704;29;20190;-75
2023/01/13 14:01:36;;;;;;;5.47;4.00;;;10.60;99.90;;;;;;4883393;29;20239;-76
2023/01/13 14:04:16;;;;;;;5.13;4.40;;;10.20;99.90;;;;;;4873038;29;20192;-76
2023/01/13 14:06:56;;;;;;;9.57;4.80;;;10.00;99.90;;;;;;4877464;29;20220;-75
2023/01/13 14:09:24;;;;;;;14.40;13.50;;;10.00;99.90;;;;;;4878652;29;20233;-76
2023/01/13 14:11:59;;;;;;;6.57;6.10;;;10.00;99.90;;;;;;4877864;29;20195;-75
2023/01/13 14:14:25;;;;;;;7.23;6.73;;;9.80;99.90;;;;;;4894585;29;20187;-75
2023/01/13 14:16:53;;;;;;;8.70;6.97;;;9.70;99.90;;;;;;4894436;29;20557;-76
2023/01/13 14:19:33;;;;;;;8.10;7.67;;;9.70;99.90;;;;;;4878449;29;20250;-75
2023/01/13 14:22:00;;;;;;;10.87;10.13;;;9.70;99.90;;;;;;4877971;29;20207;-76
2023/01/13 14:24:27;;;;;;;5.57;5.17;;;9.70;99.90;;;;;;4894885;29;20188;-74
2023/01/13 14:27:06;;;;;;;7.80;7.17;;;9.60;99.90;;;;;;4894674;29;20220;-74
2023/01/13 14:29:33;;;;;;;9.60;8.90;;;9.60;99.90;;;;;;4878326;29;20768;-74
2023/01/13 14:31:58;;;;;;;8.60;7.80;;;9.50;99.90;;;;;;4894953;29;20201;-76
2023/01/13 14:34:27;;;;;;;10.17;9.67;;;9.40;99.90;;;;;;4894904;29;20187;-75
2023/01/13 14:36:53;;;;;;;9.27;8.77;;;9.20;99.90;;;;;;4894506;29;20577;-76
2023/01/13 14:39:32;;;;;;;35.27;33.10;;;8.80;99.90;;;;;;4887765;29;20195;-74
2023/01/13 14:41:58;;;;;;;16.27;15.37;;;8.40;99.90;;;;;;4876705;29;20254;-75
2023/01/13 14:44:34;;;;;;;9.03;8.53;;;8.00;99.90;;;;;;4876487;29;20186;-73
2023/01/13 14:47:16;;;;;;;6.93;6.53;;;7.70;99.90;;;;;;4894030;29;20246;-74
2023/01/13 14:49:59;;;;;;;9.97;9.50;;;7.50;99.90;;;;;;4894018;29;20188;-74
2023/01/13 14:52:28;;;;;;;7.63;7.33;;;7.40;99.90;;;;;;4892995;29;20183;-74
2023/01/13 14:55:35;;;;;;;9.47;8.93;;;7.20;99.90;;;;;;4902722;29;20270;-73
2023/01/13 14:58:33;;;;;;;13.80;13.07;;;7.30;99.90;;;;;;4903623;29;20231;-75
2023/01/13 15:01:24;;;;;;;12.97;12.07;;;7.30;99.90;;;;;;4875798;29;20191;-73
2023/01/13 15:03:50;;;;;;;8.17;7.77;;;7.60;99.90;;;;;;4898182;29;20220;-73
2023/01/13 15:06:26;;;;;;;6.63;6.13;;;7.70;99.90;;;;;;4898218;29;20203;-73
2023/01/13 15:08:52;;;;;;;5.93;5.57;;;7.70;99.90;;;;;;4897819;29;20195;-74
2023/01/13 15:11:27;;;;;;;6.00;5.70;;;7.60;99.90;;;;;;4897630;29;20207;-74
2023/01/13 15:14:02;;;;;;;10.87;6.13;;;7.60;99.90;;;;;;4898287;29;20191;-73
2023/01/13 15:16:30;;;;;;;5.87;5.57;;;7.50;99.90;;;;;;4898551;29;20309;-73
2023/01/13 15:18:57;;;;;;;6.20;5.77;;;7.50;99.90;;;;;;4898506;29;20176;-72
2023/01/13 15:21:24;;;;;;;4.83;4.57;;;7.50;99.90;;;;;;4897591;29;20187;-74
2023/01/13 15:23:50;;;;;;;5.93;5.43;;;7.50;99.90;;;;;;4897892;29;20558;-75
2023/01/13 15:26:23;;;;;;;5.77;5.50;;;7.40;99.90;;;;;;4880268;29;20630;-75
2023/01/13 15:28:50;;;;;;;7.43;6.97;;;7.50;99.90;;;;;;4897478;29;20192;-73
2023/01/13 15:31:16;;;;;;;5.37;5.07;;;7.50;99.90;;;;;;4880643;29;20527;-73
2023/01/13 15:33:42;;;;;;;4.97;4.77;;;7.50;99.90;;;;;;4897678;29;20570;-74
2023/01/13 15:36:21;;;;;;;5.90;5.50;;;7.50;99.90;;;;;;4897339;29;20216;-73
2023/01/13 15:38:48;;;;;;;6.13;5.77;;;7.40;99.90;;;;;;4897040;29;20183;-73
2023/01/13 15:41:13;;;;;;;5.00;4.70;;;7.30;99.90;;;;;;4897093;29;20187;-73
2023/01/13 15:46:39;;;;;;;5.67;5.17;;;7.20;99.90;;;;;;4897193;29;20222;-73
2023/01/13 15:49:35;;;;;;;6.17;5.73;;;7.20;99.90;;;;;;4880110;29;20275;-73
2023/01/13 15:52:15;;;;;;;6.37;6.07;;;7.20;99.90;;;;;;4896680;29;20195;-73
2023/01/13 15:54:41;;;;;;;5.93;5.50;;;7.20;99.90;;;;;;4880452;29;20187;-73
2023/01/13 15:57:19;;;;;;;6.50;6.10;;;7.30;99.90;;;;;;4879481;29;20691;-74
2023/01/13 15:59:44;;;;;;;6.80;6.37;;;7.30;99.90;;;;;;4880207;29;20217;-73
2023/01/13 16:02:17;;;;;;;6.20;5.60;;;7.20;99.90;;;;;;4896637;29;20703;-73
2023/01/13 16:04:44;;;;;;;5.90;5.53;;;7.10;99.90;;;;;;4896738;29;20184;-73
2023/01/13 16:07:14;;;;;;;6.40;6.10;;;7.00;99.90;;;;;;4895331;29;20293;-73
2023/01/13 16:09:40;;;;;;;6.77;5.87;;;6.90;99.90;;;;;;4879689;29;20188;-73
2023/01/13 16:12:06;;;;;;;11.70;9.07;;;6.80;99.90;;;;;;4879923;29;20862;-73
2023/01/13 16:14:31;;;;;;;23.47;18.90;;;6.80;99.90;;;;;;4896612;29;20253;-73
2023/01/13 16:16:57;;;;;;;17.60;16.50;;;6.80;99.90;;;;;;4930923;23;20697;-71
2023/01/13 16:19:23;;;;;;;14.40;13.60;;;6.80;99.90;;;;;;4934130;29;20186;-71
2023/01/13 16:21:49;;;;;;;12.00;11.30;;;6.80;99.90;;;;;;4926075;29;20655;-72
2023/01/13 16:24:14;;;;;;;12.43;11.73;;;6.80;99.90;;;;;;4898633;29;20206;-72
2023/01/13 16:26:40;;;;;;;9.07;8.63;;;6.90;99.90;;;;;;4915492;29;20230;-72
2023/01/13 16:29:06;;;;;;;6.70;6.33;;;6.90;99.90;;;;;;4915038;29;20558;-72
2023/01/13 16:31:33;;;;;;;12.00;10.60;;;7.00;99.90;;;;;;4898293;29;20822;-71
2023/01/13 16:34:01;;;;;;;10.70;9.83;;;7.10;99.90;;;;;;4898283;29;20277;-71
2023/01/13 16:36:28;;;;;;;6.93;6.23;;;7.00;99.90;;;;;;4898190;29;20222;-71
2023/01/13 16:38:54;;;;;;;11.97;8.30;;;7.00;99.90;;;;;;4914688;29;20252;-72
2023/01/13 16:41:23;;;;;;;8.83;8.07;;;7.00;99.90;;;;;;4898056;29;20265;-75
2023/01/13 16:43:49;;;;;;;8.07;7.60;;;7.10;99.90;;;;;;4898417;29;20211;-69
2023/01/13 16:46:26;;;;;;;7.03;6.53;;;7.20;99.90;;;;;;4914915;29;20279;-69
2023/01/13 16:48:54;;;;;;;6.57;5.97;;;7.20;99.90;;;;;;4914686;29;20186;-69
2023/01/13 16:51:21;;;;;;;6.67;5.83;;;7.10;99.90;;;;;;4900262;29;20210;-77
2023/01/13 16:53:47;;;;;;;6.67;6.00;;;7.10;99.90;;;;;;4900455;29;20267;-78
2023/01/13 16:56:19;;;;;;;6.43;5.93;;;7.10;99.90;;;;;;4900311;29;20305;-77
2023/01/13 16:58:45;;;;;;;9.67;6.50;;;7.00;99.90;;;;;;4901177;29;20183;-78
2023/01/13 17:01:18;;;;;;;5.90;5.50;;;7.00;99.90;;;;;;4902669;29;20189;-77
2023/01/13 17:03:47;;;;;;;6.67;6.23;;;6.80;99.90;;;;;;4908930;29;20202;-77
2023/01/13 17:06:25;;;;;;;7.27;6.67;;;6.70;99.90;;;;;;4919500;29;20198;-78
2023/01/13 17:08:52;;;;;;;7.07;6.50;;;6.60;99.90;;;;;;4933331;29;20224;-78
2023/01/13 17:11:18;;;;;;;11.43;8.97;;;6.50;99.90;;;;;;4914530;29;20189;-78
2023/01/13 17:13:44;;;;;;;8.90;8.27;;;6.40;99.90;;;;;;4898802;29;20187;-78
2023/01/13 17:16:21;;;;;;;9.83;8.90;;;6.30;99.90;;;;;;4898169;29;20278;-78
2023/01/13 17:18:47;;;;;;;13.40;12.60;;;6.20;99.90;;;;;;4915020;29;20556;-78
2023/01/13 17:21:13;;;;;;;9.97;8.53;;;6.10;99.90;;;;;;4915266;29;20207;-78
2023/01/13 17:23:39;;;;;;;7.37;6.43;;;6.10;99.90;;;;;;4898873;29;20183;-78
2023/01/13 17:26:05;;;;;;;9.70;8.90;;;6.10;99.90;;;;;;4916091;29;20262;-77
2023/01/13 17:28:31;;;;;;;12.30;11.30;;;6.20;99.90;;;;;;4903577;29;20194;-76
2023/01/13 17:30:57;;;;;;;12.80;12.10;;;6.30;99.90;;;;;;4901738;29;20179;-78
2023/01/13 17:33:23;;;;;;;9.13;8.50;;;6.40;99.90;;;;;;4915629;29;20190;-78
2023/01/13 17:35:49;;;;;;;9.00;8.57;;;6.40;99.90;;;;;;4899311;29;20191;-78
2023/01/13 17:38:15;;;;;;;10.27;9.67;;;6.30;99.90;;;;;;4915352;29;20184;-78
2023/01/13 17:40:41;;;;;;;13.03;12.13;;;6.30;99.90;;;;;;4902015;29;20190;-78
2023/01/13 17:43:06;;;;;;;12.23;11.40;;;6.20;99.90;;;;;;4908844;29;20183;-78
2023/01/13 17:45:32;;;;;;;10.67;9.60;;;6.10;99.90;;;;;;4910496;29;20238;-78
2023/01/13 17:47:58;;;;;;;11.70;10.47;;;6.10;99.90;;;;;;4905900;29;20210;-78
2023/01/13 17:50:26;;;;;;;15.80;14.60;;;5.90;99.90;;;;;;4915906;29;20670;-77
2023/01/13 17:52:53;;;;;;;14.83;14.00;;;5.90;99.90;;;;;;4898716;29;20198;-78
2023/01/13 17:55:19;;;;;;;9.00;8.40;;;5.90;99.90;;;;;;4917566;29;20187;-78
2023/01/13 17:57:44;;;;;;;9.27;8.40;;;5.80;99.90;;;;;;4898592;29;20211;-78